createdAt,value
2019-04-04T00:01:39.685Z,96615.91
2019-04-04T00:05:45.375Z,96602.78
2019-04-04T00:09:51.062Z,96595.40
2019-04-04T00:13:56.766Z,96594.33
2019-04-04T00:18:02.561Z,96582.23
2019-04-04T00:22:08.244Z,96571.08
2019-04-04T00:26:13.937Z,96580.39
2019-04-04T00:30:19.690Z,96573.11
2019-04-04T00:34:27.761Z,96585.86
2019-04-04T00:38:32.885Z,96583.81
2019-04-04T00:42:39.637Z,96576.61
2019-04-04T00:46:45.328Z,96569.97
2019-04-04T00:50:51.089Z,96552.66
2019-04-04T00:54:56.763Z,96542.58
2019-04-04T00:59:06.541Z,96516.38
2019-04-04T01:03:12.225Z,96515.88
2019-04-04T01:07:17.922Z,96520.63
2019-04-04T01:11:23.624Z,96503.02
2019-04-04T01:15:31.152Z,96485.07
2019-04-04T01:19:36.894Z,96506.02
2019-04-04T01:23:42.574Z,96480.94
2019-04-04T01:27:48.333Z,96450.23
2019-04-04T01:31:54.087Z,96451.44
2019-04-04T01:36:00.730Z,96447.53
2019-04-04T01:40:08.345Z,96460.34
2019-04-04T01:44:14.026Z,96456.10
2019-04-04T01:48:19.712Z,96446.16
2019-04-04T01:52:27.909Z,96430.75
2019-04-04T01:56:33.115Z,96458.63
2019-04-04T02:00:38.921Z,96453.34
2019-04-04T02:04:44.685Z,96455.73
2019-04-04T02:08:50.421Z,96395.70
2019-04-04T02:12:57.223Z,96405.67
2019-04-04T02:17:02.904Z,96444.59
2019-04-04T02:21:08.600Z,96427.67
2019-04-04T02:25:14.618Z,96415.76
2019-04-04T02:29:20.343Z,96414.23
2019-04-04T02:33:26.039Z,96403.84
2019-04-04T02:37:31.733Z,96397.75
2019-04-04T02:41:37.959Z,96391.66
2019-04-04T02:45:43.655Z,96390.52
2019-04-04T02:49:49.345Z,96391.69
2019-04-04T02:53:55.042Z,96389.83
2019-04-04T02:58:00.818Z,96383.71
2019-04-04T03:02:06.559Z,96350.81
2019-04-04T03:06:12.424Z,96366.75
2019-04-04T03:10:18.189Z,96356.23
2019-04-04T03:14:23.892Z,96350.87
2019-04-04T03:18:29.571Z,96363.97
2019-04-04T03:22:35.224Z,96337.88
2019-04-04T03:26:40.944Z,96341.27
2019-04-04T03:30:52.813Z,96337.75
2019-04-04T03:34:54.086Z,96308.88
2019-04-04T03:38:59.800Z,96288.69
2019-04-04T03:43:05.588Z,96292.03
2019-04-04T03:47:11.430Z,96311.80
2019-04-04T03:51:17.144Z,96310.48
2019-04-04T03:55:23.012Z,96308.81
2019-04-04T03:59:29.592Z,96305.17
2019-04-04T04:03:36.077Z,96292.05
2019-04-04T04:07:41.838Z,96280.73
2019-04-04T04:11:47.531Z,96288.98
2019-04-04T04:15:53.243Z,96287.77
2019-04-04T04:20:03.406Z,96266.27
2019-04-04T04:24:06.313Z,96271.98
2019-04-04T04:28:12.446Z,96271.17
2019-04-04T04:32:21.374Z,96257.73
2019-04-04T04:36:25.569Z,96260.39
2019-04-04T04:40:31.250Z,96271.09
2019-04-04T04:44:38.720Z,96276.73
2019-04-04T04:48:44.598Z,96267.84
2019-04-04T04:52:50.286Z,96258.03
2019-04-04T04:56:55.996Z,96250.37
2019-04-04T05:01:01.815Z,96250.06
2019-04-04T05:05:09.186Z,96259.09
2019-04-04T05:09:14.884Z,96253.04
2019-04-04T05:13:20.561Z,96240.25
2019-04-04T05:17:26.249Z,96253.32
2019-04-04T05:21:33.846Z,96245.73
2019-04-04T05:25:51.664Z,96251.40
2019-04-04T05:29:46.823Z,96238.95
2019-04-04T05:33:52.509Z,96233.42
2019-04-04T05:37:58.185Z,96236.72
2019-04-04T05:42:04.044Z,96234.00
2019-04-04T05:46:09.799Z,96238.03
2019-04-04T05:50:16.532Z,96234.47
2019-04-04T05:54:22.281Z,96225.07
2019-04-04T05:58:28.927Z,96230.66
2019-04-04T06:02:34.719Z,96223.30
2019-04-04T06:06:40.462Z,96230.58
2019-04-04T06:10:46.121Z,96234.05
2019-04-04T06:14:51.813Z,96244.16
2019-04-04T06:18:57.480Z,96241.53
2019-04-04T06:23:03.189Z,96234.83
2019-04-04T06:27:09.121Z,96225.41
2019-04-04T06:31:15.556Z,96224.06
2019-04-04T06:35:21.359Z,96244.76
2019-04-04T06:39:27.032Z,96236.58
2019-04-04T06:43:32.790Z,96240.83
2019-04-04T06:47:38.498Z,96247.23
2019-04-04T06:51:46.345Z,96246.62
2019-04-04T06:55:51.667Z,96250.34
2019-04-04T06:59:57.339Z,96257.64
2019-04-04T07:04:03.168Z,96243.81
2019-04-04T07:08:08.951Z,96244.74
2019-04-04T07:12:21.905Z,96257.48
2019-04-04T07:16:22.011Z,96255.95
2019-04-04T07:20:28.566Z,96256.51
2019-04-04T07:24:34.366Z,96260.06
2019-04-04T07:28:40.049Z,96263.08
2019-04-04T07:32:45.743Z,96279.27
2019-04-04T07:36:51.890Z,96276.59
2019-04-04T07:40:57.656Z,96278.96
2019-04-04T07:45:04.995Z,96275.19
2019-04-04T07:49:10.684Z,96279.56
2019-04-04T07:53:16.446Z,96288.95
2019-04-04T07:57:22.120Z,96293.94
2019-04-04T08:01:27.825Z,96305.41
2019-04-04T08:05:33.652Z,96304.27
2019-04-04T08:09:39.358Z,96297.41
2019-04-04T08:13:45.121Z,96289.34
2019-04-04T08:17:50.827Z,96284.00
2019-04-04T08:21:56.587Z,96291.48
2019-04-04T08:26:02.305Z,96312.66
2019-04-04T08:30:09.248Z,96305.85
2019-04-04T08:34:14.942Z,96299.80
2019-04-04T08:38:20.655Z,96299.00
2019-04-04T08:42:26.450Z,96303.37
2019-04-04T08:46:32.165Z,96305.05
2019-04-04T08:50:37.864Z,96302.34
2019-04-04T08:54:43.705Z,96294.23
2019-04-04T08:58:51.636Z,96277.47
2019-04-04T09:02:56.775Z,96247.86
2019-04-04T09:07:02.540Z,96238.63
2019-04-04T09:11:08.335Z,96254.48
2019-04-04T09:15:14.738Z,96267.34
2019-04-04T09:19:20.411Z,96269.82
2019-04-04T09:23:26.120Z,96275.61
2019-04-04T09:27:31.810Z,96261.11
2019-04-04T09:31:37.511Z,96249.19
2019-04-04T09:36:19.121Z,96258.43
2019-04-04T09:40:24.807Z,96268.46
2019-04-04T09:44:30.508Z,96275.72
2019-04-04T09:48:36.216Z,96292.02
2019-04-04T09:52:41.905Z,96294.87
2019-04-04T09:56:47.692Z,96309.42
2019-04-04T10:05:47.334Z,96293.59
2019-04-04T10:09:53.284Z,96305.04
2019-04-04T10:13:58.973Z,96316.16
2019-04-04T10:18:04.820Z,96306.08
2019-04-04T10:22:10.561Z,96305.97
2019-04-04T10:26:16.202Z,96311.63
2019-04-04T10:30:22.118Z,96314.05
2019-04-04T10:34:28.422Z,96324.77
2019-04-04T10:38:34.293Z,96326.28
2019-04-04T10:42:40.140Z,96337.65
2019-04-04T10:46:45.802Z,96321.05
2019-04-04T10:50:51.499Z,96327.75
2019-04-04T10:54:57.352Z,96324.20
2019-04-04T10:59:03.033Z,96336.13
2019-04-04T11:03:08.738Z,96327.29
2019-04-04T11:07:14.479Z,96328.56
2019-04-04T11:11:20.192Z,96324.56
2019-04-04T11:15:25.897Z,96327.57
2019-04-04T11:19:31.704Z,96336.36
2019-04-04T11:23:37.450Z,96336.57
2019-04-04T11:27:43.130Z,96328.44
2019-04-04T11:31:48.924Z,96334.30
2019-04-04T11:35:54.631Z,96354.62
2019-04-04T11:40:00.325Z,96351.47
2019-04-04T11:44:06.052Z,96344.23
2019-04-04T11:48:11.744Z,96333.03
2019-04-04T11:52:17.432Z,96331.80
2019-04-04T11:56:23.134Z,96373.41
2019-04-04T12:00:30.553Z,96383.28
2019-04-04T12:04:36.245Z,96374.28
2019-04-04T12:08:41.949Z,96403.48
2019-04-04T12:12:47.649Z,96404.42
2019-04-04T12:16:53.351Z,96414.48
2019-04-04T12:21:00.016Z,96433.16
2019-04-04T12:25:07.616Z,96437.60
2019-04-04T12:29:13.290Z,96442.47
2019-04-04T12:33:19.958Z,96452.22
2019-04-04T12:37:25.713Z,96469.70
2019-04-04T12:41:31.462Z,96481.53
2019-04-04T12:45:37.269Z,96487.97
2019-04-04T12:49:42.966Z,96481.20
2019-04-04T12:53:48.710Z,96484.39
2019-04-04T12:57:54.424Z,96490.84
2019-04-04T13:02:00.543Z,96488.07
2019-04-04T13:06:06.218Z,96473.30
2019-04-04T13:10:12.584Z,96487.38
2019-04-04T13:14:18.268Z,96500.48
2019-04-04T13:18:23.954Z,96520.75
2019-04-04T13:22:29.661Z,96523.16
2019-04-04T13:26:35.322Z,96540.37
2019-04-04T13:30:41.015Z,96543.36
2019-04-04T13:34:58.303Z,96549.97
2019-04-04T13:38:55.233Z,96540.05
2019-04-04T13:43:01.072Z,96535.84
2019-04-04T13:47:06.846Z,96518.92
2019-04-04T13:51:12.544Z,96492.20
2019-04-04T13:55:18.428Z,96485.05
2019-04-04T13:59:24.122Z,96500.73
2019-04-04T14:03:29.810Z,96524.10
2019-04-04T14:07:35.551Z,96517.27
2019-04-04T14:11:42.130Z,96554.94
2019-04-04T14:15:47.926Z,96592.02
2019-04-04T14:19:53.714Z,96594.56
2019-04-04T14:24:12.128Z,96584.94
2019-04-04T14:28:06.871Z,96591.45
2019-04-04T14:32:12.639Z,96581.39
2019-04-04T14:36:18.386Z,96597.23
2019-04-04T14:40:24.105Z,96609.20
2019-04-04T14:44:30.193Z,96604.73
2019-04-04T14:48:36.617Z,96604.38
2019-04-04T14:52:42.386Z,96599.22
2019-04-04T14:56:48.108Z,96596.75
2019-04-04T15:00:53.793Z,96616.47
2019-04-04T15:04:59.476Z,96613.06
2019-04-04T15:09:09.082Z,96630.93
2019-04-04T15:13:14.859Z,96635.22
2019-04-04T15:17:20.729Z,96661.13
2019-04-04T15:21:26.447Z,96668.22
2019-04-04T15:25:32.111Z,96660.28
2019-04-04T15:29:37.803Z,96647.45
2019-04-04T15:33:43.572Z,96642.41
2019-04-04T15:37:49.280Z,96644.47
2019-04-04T15:41:54.972Z,96618.86
2019-04-04T15:46:00.729Z,96611.86
2019-04-04T15:50:08.611Z,96644.13
2019-04-04T15:54:14.431Z,96663.77
2019-04-04T15:58:20.129Z,96669.95
2019-04-04T16:02:25.801Z,96666.46
2019-04-04T16:06:31.622Z,96666.32
2019-04-04T16:10:37.382Z,96646.10
2019-04-04T16:14:43.145Z,96625.43
2019-04-04T16:18:49.981Z,96637.25
2019-04-04T16:22:55.690Z,96642.38
2019-04-04T16:27:01.480Z,96644.23
2019-04-04T16:31:07.312Z,96657.52
2019-04-04T16:35:13.209Z,96656.84
2019-04-04T16:39:18.988Z,96666.86
2019-04-04T16:43:24.784Z,96683.02
2019-04-04T16:47:30.488Z,96688.94
2019-04-04T16:51:36.732Z,96701.34
2019-04-04T16:55:42.601Z,96709.68
2019-04-04T16:59:48.369Z,96710.43
2019-04-04T17:04:01.561Z,96696.55
2019-04-04T17:08:01.580Z,96686.22
2019-04-04T17:12:14.935Z,96701.68
2019-04-04T17:16:17.471Z,96710.47
2019-04-04T17:20:23.236Z,96725.43
2019-04-04T17:24:28.920Z,96731.48
2019-04-04T17:28:35.220Z,96742.68
2019-04-04T17:33:07.187Z,96755.48
2019-04-04T17:37:13.467Z,96758.25
2019-04-04T17:41:19.174Z,96763.13
2019-04-04T17:45:25.737Z,96762.14
2019-04-04T17:49:31.757Z,96779.27
2019-04-04T17:53:37.562Z,96776.89
2019-04-04T17:57:43.517Z,96778.86
2019-04-04T18:01:49.222Z,96787.75
2019-04-04T18:05:54.999Z,96788.16
2019-04-04T18:10:01.371Z,96805.21
2019-04-04T18:14:07.615Z,96812.41
2019-04-04T18:18:13.298Z,96813.78
2019-04-04T18:22:20.790Z,96799.67
2019-04-04T18:26:26.547Z,96805.39
2019-04-04T18:30:32.253Z,96802.70
2019-04-04T18:34:38.181Z,96797.18
2019-04-04T18:38:43.842Z,96803.11
2019-04-04T18:42:53.527Z,96818.33
2019-04-04T18:46:56.957Z,96826.51
2019-04-04T18:51:02.657Z,96844.80
2019-04-04T18:55:19.128Z,96855.28
2019-04-04T18:59:16.737Z,96857.39
2019-04-04T19:03:22.520Z,96862.06
2019-04-04T19:07:38.779Z,96883.73
2019-04-04T19:11:35.722Z,96896.17
2019-04-04T19:15:41.509Z,96903.91
2019-04-04T19:19:47.284Z,96901.34
2019-04-04T19:23:53.027Z,96904.05
2019-04-04T19:27:58.909Z,96893.89
2019-04-04T19:32:05.082Z,96909.67
2019-04-04T19:36:10.868Z,96912.65
2019-04-04T19:40:17.339Z,96910.48
2019-04-04T19:44:23.095Z,96902.52
2019-04-04T19:48:28.773Z,96906.20
2019-04-04T19:52:34.502Z,96909.94
2019-04-04T19:56:40.360Z,96895.86
2019-04-04T20:00:46.173Z,96891.34
2019-04-04T20:04:51.866Z,96888.63
2019-04-04T20:08:57.576Z,96894.49
2019-04-04T20:13:03.278Z,96907.84
2019-04-04T20:17:09.151Z,96896.87
2019-04-04T20:21:17.864Z,96900.61
2019-04-04T20:26:17.590Z,96911.55
2019-04-04T20:30:38.986Z,96924.00
2019-04-04T20:35:17.628Z,96921.97
2019-04-04T20:39:23.308Z,96936.52
2019-04-04T20:44:18.669Z,96933.44
2019-04-04T20:48:24.368Z,96929.50
2019-04-04T20:52:30.049Z,96932.73
2019-04-04T20:56:35.746Z,96929.86
2019-04-04T21:00:41.433Z,96924.60
2019-04-04T21:04:47.178Z,96928.56
2019-04-04T21:08:52.871Z,96928.18
2019-04-04T21:12:58.696Z,96930.39
2019-04-04T21:17:04.441Z,96939.78
2019-04-04T21:21:10.140Z,96941.94
2019-04-04T21:25:16.031Z,96944.70
2019-04-04T21:29:21.713Z,96955.92
2019-04-04T21:33:27.386Z,96963.66
2019-04-04T21:37:33.204Z,96952.43
2019-04-04T21:41:38.892Z,96956.09
2019-04-04T21:45:44.595Z,96935.72
2019-04-04T21:49:50.418Z,96944.03
2019-04-04T21:53:56.105Z,96952.10
2019-04-04T21:58:01.807Z,96952.52
2019-04-04T22:02:07.827Z,96951.31
2019-04-04T22:06:13.530Z,96959.81
2019-04-04T22:10:19.281Z,96973.03
2019-04-04T22:14:25.039Z,96984.72
2019-04-04T22:18:30.694Z,96985.87
2019-04-04T22:22:36.485Z,96987.10
2019-04-04T22:26:42.227Z,96990.63
2019-04-04T22:30:47.932Z,96995.92
2019-04-04T22:34:53.662Z,96995.23
2019-04-04T22:38:59.491Z,96995.12
2019-04-04T22:43:05.265Z,96997.48
2019-04-04T22:47:10.988Z,97000.34
2019-04-04T22:51:16.736Z,97003.33
2019-04-04T22:55:22.445Z,96999.24
2019-04-04T22:59:28.074Z,96997.08
2019-04-04T23:03:34.129Z,96986.70
2019-04-04T23:07:39.804Z,96978.60
2019-04-04T23:11:45.509Z,96974.67
2019-04-04T23:15:51.179Z,96969.17
2019-04-04T23:19:56.859Z,96965.83
2019-04-04T23:24:02.543Z,96962.09
2019-04-04T23:28:08.365Z,96963.73
2019-04-04T23:32:14.057Z,96960.05
2019-04-04T23:36:19.730Z,96959.28
2019-04-04T23:40:25.499Z,96962.53
2019-04-04T23:44:31.260Z,96965.45
2019-04-04T23:48:36.941Z,96964.80
2019-04-04T23:52:42.725Z,96967.23
2019-04-04T23:56:48.414Z,96983.03
